sensor_id;sensor_type;location;lat;lon;timestamp;P1;durP1;ratioP1;P2;durP2;ratioP2
25615;SDS011;13482;48.234;13.006;2022-10-16T00:01:40;3.13;;;1.70;;
25615;SDS011;13482;48.234;13.006;2022-10-16T00:04:08;3.67;;;1.73;;
25615;SDS011;13482;48.234;13.006;2022-10-16T00:06:36;3.10;;;1.75;;
25615;SDS011;13482;48.234;13.006;2022-10-16T00:09:04;2.42;;;1.52;;
25615;SDS011;13482;48.234;13.006;2022-10-16T00:11:33;3.03;;;1.50;;
25615;SDS011;13482;48.234;13.006;2022-10-16T00:14:07;2.35;;;1.30;;
25615;SDS011;13482;48.234;13.006;2022-10-16T00:16:40;3.05;;;1.52;;
25615;SDS011;13482;48.234;13.006;2022-10-16T00:19:07;2.55;;;1.38;;
25615;SDS011;13482;48.234;13.006;2022-10-16T00:21:37;3.35;;;1.10;;
25615;SDS011;13482;48.234;13.006;2022-10-16T00:24:06;2.30;;;1.30;;
25615;SDS011;13482;48.234;13.006;2022-10-16T00:26:36;1.40;;;0.90;;
25615;SDS011;13482;48.234;13.006;2022-10-16T00:29:05;1.80;;;0.82;;
25615;SDS011;13482;48.234;13.006;2022-10-16T00:31:33;4.63;;;1.58;;
25615;SDS011;13482;48.234;13.006;2022-10-16T00:34:01;2.10;;;0.85;;
25615;SDS011;13482;48.234;13.006;2022-10-16T00:36:28;3.08;;;0.77;;
25615;SDS011;13482;48.234;13.006;2022-10-16T00:38:57;1.20;;;0.70;;
25615;SDS011;13482;48.234;13.006;2022-10-16T00:41:31;1.40;;;0.75;;
25615;SDS011;13482;48.234;13.006;2022-10-16T00:44:01;1.42;;;0.90;;
25615;SDS011;13482;48.234;13.006;2022-10-16T00:46:50;5.18;;;0.80;;
25615;SDS011;13482;48.234;13.006;2022-10-16T00:49:18;1.70;;;0.77;;
25615;SDS011;13482;48.234;13.006;2022-10-16T00:51:51;2.08;;;0.80;;
25615;SDS011;13482;48.234;13.006;2022-10-16T00:56:50;2.30;;;0.57;;
25615;SDS011;13482;48.234;13.006;2022-10-16T00:59:22;1.67;;;0.70;;
25615;SDS011;13482;48.234;13.006;2022-10-16T01:01:54;1.58;;;0.60;;
25615;SDS011;13482;48.234;13.006;2022-10-16T01:04:23;2.22;;;0.80;;
25615;SDS011;13482;48.234;13.006;2022-10-16T01:07:56;2.28;;;0.60;;
25615;SDS011;13482;48.234;13.006;2022-10-16T01:17:56;1.58;;;0.50;;
25615;SDS011;13482;48.234;13.006;2022-10-16T01:20:32;1.13;;;0.60;;
25615;SDS011;13482;48.234;13.006;2022-10-16T01:26:04;0.95;;;0.50;;
25615;SDS011;13482;48.234;13.006;2022-10-16T01:29:03;0.77;;;0.57;;
25615;SDS011;13482;48.234;13.006;2022-10-16T01:31:53;1.58;;;0.60;;
25615;SDS011;13482;48.234;13.006;2022-10-16T01:34:38;0.80;;;0.50;;
25615;SDS011;13482;48.234;13.006;2022-10-16T01:37:15;1.20;;;0.52;;
25615;SDS011;13482;48.234;13.006;2022-10-16T01:40:19;1.30;;;0.43;;
25615;SDS011;13482;48.234;13.006;2022-10-16T01:45:42;1.15;;;0.40;;
25615;SDS011;13482;48.234;13.006;2022-10-16T01:48:13;0.95;;;0.43;;
25615;SDS011;13482;48.234;13.006;2022-10-16T01:50:48;2.33;;;0.60;;
25615;SDS011;13482;48.234;13.006;2022-10-16T01:53:25;0.90;;;0.43;;
25615;SDS011;13482;48.234;13.006;2022-10-16T01:55:53;1.85;;;0.50;;
25615;SDS011;13482;48.234;13.006;2022-10-16T01:58:22;1.00;;;0.55;;
25615;SDS011;13482;48.234;13.006;2022-10-16T02:00:52;1.63;;;0.60;;
25615;SDS011;13482;48.234;13.006;2022-10-16T02:03:21;1.85;;;0.80;;
25615;SDS011;13482;48.234;13.006;2022-10-16T02:05:53;1.23;;;0.80;;
25615;SDS011;13482;48.234;13.006;2022-10-16T02:08:23;6.93;;;0.90;;
25615;SDS011;13482;48.234;13.006;2022-10-16T02:10:55;4.07;;;0.70;;
25615;SDS011;13482;48.234;13.006;2022-10-16T02:13:26;1.05;;;0.57;;
25615;SDS011;13482;48.234;13.006;2022-10-16T02:16:04;1.38;;;0.50;;
25615;SDS011;13482;48.234;13.006;2022-10-16T02:18:31;2.05;;;0.50;;
25615;SDS011;13482;48.234;13.006;2022-10-16T02:21:00;1.48;;;0.57;;
25615;SDS011;13482;48.234;13.006;2022-10-16T02:23:43;1.00;;;0.63;;
25615;SDS011;13482;48.234;13.006;2022-10-16T02:26:39;1.27;;;0.63;;
25615;SDS011;13482;48.234;13.006;2022-10-16T02:29:29;1.20;;;0.50;;
25615;SDS011;13482;48.234;13.006;2022-10-16T02:32:00;1.73;;;0.80;;
25615;SDS011;13482;48.234;13.006;2022-10-16T02:34:31;2.83;;;0.80;;
25615;SDS011;13482;48.234;13.006;2022-10-16T02:37:00;1.45;;;0.90;;
25615;SDS011;13482;48.234;13.006;2022-10-16T02:39:28;1.60;;;0.60;;
25615;SDS011;13482;48.234;13.006;2022-10-16T02:41:56;2.17;;;0.80;;
25615;SDS011;13482;48.234;13.006;2022-10-16T02:44:23;0.88;;;0.52;;
25615;SDS011;13482;48.234;13.006;2022-10-16T02:46:50;2.05;;;0.50;;
25615;SDS011;13482;48.234;13.006;2022-10-16T02:49:17;2.33;;;0.60;;
25615;SDS011;13482;48.234;13.006;2022-10-16T02:51:45;1.13;;;0.60;;
25615;SDS011;13482;48.234;13.006;2022-10-16T02:54:12;1.17;;;0.63;;
25615;SDS011;13482;48.234;13.006;2022-10-16T02:56:39;0.95;;;0.60;;
25615;SDS011;13482;48.234;13.006;2022-10-16T02:59:06;0.65;;;0.60;;
25615;SDS011;13482;48.234;13.006;2022-10-16T03:01:33;1.05;;;0.60;;
25615;SDS011;13482;48.234;13.006;2022-10-16T03:04:02;0.80;;;0.50;;
25615;SDS011;13482;48.234;13.006;2022-10-16T03:06:29;1.85;;;0.60;;
25615;SDS011;13482;48.234;13.006;2022-10-16T03:08:56;2.30;;;0.55;;
25615;SDS011;13482;48.234;13.006;2022-10-16T03:11:24;0.50;;;0.47;;
25615;SDS011;13482;48.234;13.006;2022-10-16T03:13:51;1.10;;;0.70;;
25615;SDS011;13482;48.234;13.006;2022-10-16T03:16:18;2.97;;;0.45;;
25615;SDS011;13482;48.234;13.006;2022-10-16T03:18:49;1.50;;;0.50;;
25615;SDS011;13482;48.234;13.006;2022-10-16T03:21:16;1.05;;;0.50;;
25615;SDS011;13482;48.234;13.006;2022-10-16T03:23:43;1.48;;;0.50;;
25615;SDS011;13482;48.234;13.006;2022-10-16T03:26:10;0.85;;;0.50;;
25615;SDS011;13482;48.234;13.006;2022-10-16T03:28:37;0.80;;;0.57;;
25615;SDS011;13482;48.234;13.006;2022-10-16T03:31:05;0.55;;;0.40;;
25615;SDS011;13482;48.234;13.006;2022-10-16T03:33:32;2.38;;;0.50;;
25615;SDS011;13482;48.234;13.006;2022-10-16T03:35:59;2.28;;;0.60;;
25615;SDS011;13482;48.234;13.006;2022-10-16T03:38:26;0.95;;;0.60;;
25615;SDS011;13482;48.234;13.006;2022-10-16T03:40:53;0.95;;;0.50;;
25615;SDS011;13482;48.234;13.006;2022-10-16T03:43:21;0.70;;;0.50;;
25615;SDS011;13482;48.234;13.006;2022-10-16T03:45:49;2.33;;;0.73;;
25615;SDS011;13482;48.234;13.006;2022-10-16T03:48:18;1.10;;;0.60;;
25615;SDS011;13482;48.234;13.006;2022-10-16T03:50:46;1.20;;;0.70;;
25615;SDS011;13482;48.234;13.006;2022-10-16T03:53:14;1.05;;;0.65;;
25615;SDS011;13482;48.234;13.006;2022-10-16T03:55:42;0.65;;;0.50;;
25615;SDS011;13482;48.234;13.006;2022-10-16T03:58:10;0.95;;;0.60;;
25615;SDS011;13482;48.234;13.006;2022-10-16T04:00:41;0.85;;;0.40;;
25615;SDS011;13482;48.234;13.006;2022-10-16T04:03:13;0.60;;;0.40;;
25615;SDS011;13482;48.234;13.006;2022-10-16T04:05:40;1.90;;;0.40;;
25615;SDS011;13482;48.234;13.006;2022-10-16T04:08:08;1.23;;;0.70;;
25615;SDS011;13482;48.234;13.006;2022-10-16T04:10:35;1.77;;;0.93;;
25615;SDS011;13482;48.234;13.006;2022-10-16T04:13:02;0.70;;;0.60;;
25615;SDS011;13482;48.234;13.006;2022-10-16T04:15:29;1.77;;;0.50;;
25615;SDS011;13482;48.234;13.006;2022-10-16T04:17:56;1.35;;;0.40;;
25615;SDS011;13482;48.234;13.006;2022-10-16T04:20:24;9.00;;;1.02;;
25615;SDS011;13482;48.234;13.006;2022-10-16T04:22:51;1.20;;;0.50;;
25615;SDS011;13482;48.234;13.006;2022-10-16T04:25:18;2.50;;;0.50;;
25615;SDS011;13482;48.234;13.006;2022-10-16T04:27:45;2.80;;;0.68;;
25615;SDS011;13482;48.234;13.006;2022-10-16T04:30:12;1.25;;;0.55;;
25615;SDS011;13482;48.234;13.006;2022-10-16T04:32:40;3.85;;;0.50;;
25615;SDS011;13482;48.234;13.006;2022-10-16T04:35:08;0.80;;;0.55;;
25615;SDS011;13482;48.234;13.006;2022-10-16T04:37:35;0.60;;;0.40;;
25615;SDS011;13482;48.234;13.006;2022-10-16T04:40:02;1.63;;;0.50;;
25615;SDS011;13482;48.234;13.006;2022-10-16T04:42:30;0.88;;;0.52;;
25615;SDS011;13482;48.234;13.006;2022-10-16T04:44:57;1.60;;;0.60;;
25615;SDS011;13482;48.234;13.006;2022-10-16T04:47:24;1.75;;;0.60;;
25615;SDS011;13482;48.234;13.006;2022-10-16T04:49:52;0.77;;;0.50;;
25615;SDS011;13482;48.234;13.006;2022-10-16T04:52:19;1.90;;;0.75;;
25615;SDS011;13482;48.234;13.006;2022-10-16T04:54:47;2.33;;;0.75;;
25615;SDS011;13482;48.234;13.006;2022-10-16T04:57:16;1.90;;;0.75;;
25615;SDS011;13482;48.234;13.006;2022-10-16T04:59:43;1.40;;;0.75;;
25615;SDS011;13482;48.234;13.006;2022-10-16T05:02:11;1.83;;;0.70;;
25615;SDS011;13482;48.234;13.006;2022-10-16T05:04:38;1.52;;;0.55;;
25615;SDS011;13482;48.234;13.006;2022-10-16T05:07:05;2.53;;;0.80;;
25615;SDS011;13482;48.234;13.006;2022-10-16T05:09:32;1.52;;;0.73;;
25615;SDS011;13482;48.234;13.006;2022-10-16T05:11:59;7.25;;;1.08;;
25615;SDS011;13482;48.234;13.006;2022-10-16T05:14:26;3.55;;;1.02;;
25615;SDS011;13482;48.234;13.006;2022-10-16T05:16:53;8.43;;;1.70;;
25615;SDS011;13482;48.234;13.006;2022-10-16T05:19:21;2.47;;;1.17;;
25615;SDS011;13482;48.234;13.006;2022-10-16T05:21:53;1.70;;;1.15;;
25615;SDS011;13482;48.234;13.006;2022-10-16T05:24:20;1.33;;;1.00;;
25615;SDS011;13482;48.234;13.006;2022-10-16T05:26:47;6.88;;;1.40;;
25615;SDS011;13482;48.234;13.006;2022-10-16T05:29:15;2.33;;;1.23;;
25615;SDS011;13482;48.234;13.006;2022-10-16T05:31:42;1.90;;;1.00;;
25615;SDS011;13482;48.234;13.006;2022-10-16T05:34:09;2.38;;;1.00;;
25615;SDS011;13482;48.234;13.006;2022-10-16T05:36:36;1.85;;;1.00;;
25615;SDS011;13482;48.234;13.006;2022-10-16T05:39:03;2.08;;;0.98;;
25615;SDS011;13482;48.234;13.006;2022-10-16T05:41:30;1.45;;;0.80;;
25615;SDS011;13482;48.234;13.006;2022-10-16T05:43:58;1.20;;;0.75;;
25615;SDS011;13482;48.234;13.006;2022-10-16T05:46:25;1.50;;;0.90;;
25615;SDS011;13482;48.234;13.006;2022-10-16T05:48:52;1.55;;;0.85;;
25615;SDS011;13482;48.234;13.006;2022-10-16T05:51:19;2.60;;;0.80;;
25615;SDS011;13482;48.234;13.006;2022-10-16T05:53:46;1.25;;;0.77;;
25615;SDS011;13482;48.234;13.006;2022-10-16T05:56:14;2.88;;;1.33;;
25615;SDS011;13482;48.234;13.006;2022-10-16T05:58:41;1.38;;;0.80;;
25615;SDS011;13482;48.234;13.006;2022-10-16T06:01:12;2.03;;;1.30;;
25615;SDS011;13482;48.234;13.006;2022-10-16T06:03:42;4.13;;;1.52;;
25615;SDS011;13482;48.234;13.006;2022-10-16T06:06:16;2.30;;;1.65;;
25615;SDS011;13482;48.234;13.006;2022-10-16T06:08:47;3.70;;;2.78;;
25615;SDS011;13482;48.234;13.006;2022-10-16T06:11:24;4.72;;;3.03;;
25615;SDS011;13482;48.234;13.006;2022-10-16T06:13:55;4.80;;;3.10;;
25615;SDS011;13482;48.234;13.006;2022-10-16T06:16:25;4.20;;;2.60;;
25615;SDS011;13482;48.234;13.006;2022-10-16T06:18:53;3.22;;;2.15;;
25615;SDS011;13482;48.234;13.006;2022-10-16T06:21:23;3.38;;;1.80;;
25615;SDS011;13482;48.234;13.006;2022-10-16T06:23:52;3.45;;;1.90;;
25615;SDS011;13482;48.234;13.006;2022-10-16T06:26:21;4.03;;;2.10;;
25615;SDS011;13482;48.234;13.006;2022-10-16T06:28:54;2.85;;;1.80;;
25615;SDS011;13482;48.234;13.006;2022-10-16T06:31:24;2.38;;;1.48;;
25615;SDS011;13482;48.234;13.006;2022-10-16T06:33:53;3.38;;;1.55;;
25615;SDS011;13482;48.234;13.006;2022-10-16T06:36:21;2.58;;;1.25;;
25615;SDS011;13482;48.234;13.006;2022-10-16T06:38:49;2.60;;;1.27;;
25615;SDS011;13482;48.234;13.006;2022-10-16T06:41:17;2.72;;;0.90;;
25615;SDS011;13482;48.234;13.006;2022-10-16T06:43:47;1.50;;;0.88;;
25615;SDS011;13482;48.234;13.006;2022-10-16T06:46:16;1.13;;;0.70;;
25615;SDS011;13482;48.234;13.006;2022-10-16T06:48:47;1.60;;;0.90;;
25615;SDS011;13482;48.234;13.006;2022-10-16T06:51:15;2.40;;;0.80;;
25615;SDS011;13482;48.234;13.006;2022-10-16T06:53:49;1.48;;;0.93;;
25615;SDS011;13482;48.234;13.006;2022-10-16T06:56:29;0.93;;;0.68;;
25615;SDS011;13482;48.234;13.006;2022-10-16T06:58:58;1.90;;;1.00;;
25615;SDS011;13482;48.234;13.006;2022-10-16T07:01:26;1.30;;;0.88;;
25615;SDS011;13482;48.234;13.006;2022-10-16T07:03:54;1.27;;;0.80;;
25615;SDS011;13482;48.234;13.006;2022-10-16T07:06:22;1.20;;;0.70;;
25615;SDS011;13482;48.234;13.006;2022-10-16T07:08:51;1.05;;;0.63;;
25615;SDS011;13482;48.234;13.006;2022-10-16T07:11:22;1.17;;;0.70;;
25615;SDS011;13482;48.234;13.006;2022-10-16T07:13:50;1.02;;;0.65;;
25615;SDS011;13482;48.234;13.006;2022-10-16T07:16:22;1.70;;;0.83;;
25615;SDS011;13482;48.234;13.006;2022-10-16T07:18:56;1.17;;;0.70;;
25615;SDS011;13482;48.234;13.006;2022-10-16T07:21:29;1.25;;;0.70;;
25615;SDS011;13482;48.234;13.006;2022-10-16T07:24:04;3.38;;;0.70;;
25615;SDS011;13482;48.234;13.006;2022-10-16T07:26:37;5.00;;;0.73;;
25615;SDS011;13482;48.234;13.006;2022-10-16T07:29:15;1.73;;;0.80;;
25615;SDS011;13482;48.234;13.006;2022-10-16T07:31:46;1.27;;;0.80;;
25615;SDS011;13482;48.234;13.006;2022-10-16T07:34:15;2.22;;;0.80;;
25615;SDS011;13482;48.234;13.006;2022-10-16T07:36:47;1.38;;;0.60;;
25615;SDS011;13482;48.234;13.006;2022-10-16T07:39:16;1.33;;;0.82;;
25615;SDS011;13482;48.234;13.006;2022-10-16T07:41:43;0.93;;;0.60;;
25615;SDS011;13482;48.234;13.006;2022-10-16T07:44:11;1.40;;;0.70;;
25615;SDS011;13482;48.234;13.006;2022-10-16T07:46:38;0.82;;;0.52;;
25615;SDS011;13482;48.234;13.006;2022-10-16T07:49:05;1.08;;;0.70;;
25615;SDS011;13482;48.234;13.006;2022-10-16T07:51:33;0.90;;;0.60;;
25615;SDS011;13482;48.234;13.006;2022-10-16T07:54:00;1.00;;;0.70;;
25615;SDS011;13482;48.234;13.006;2022-10-16T07:56:27;0.88;;;0.52;;
25615;SDS011;13482;48.234;13.006;2022-10-16T07:58:57;2.35;;;1.20;;
25615;SDS011;13482;48.234;13.006;2022-10-16T08:01:24;1.15;;;0.80;;
25615;SDS011;13482;48.234;13.006;2022-10-16T08:03:51;1.52;;;0.80;;
25615;SDS011;13482;48.234;13.006;2022-10-16T08:06:19;1.33;;;0.63;;
25615;SDS011;13482;48.234;13.006;2022-10-16T08:08:53;1.13;;;0.50;;
25615;SDS011;13482;48.234;13.006;2022-10-16T08:11:24;1.48;;;0.60;;
25615;SDS011;13482;48.234;13.006;2022-10-16T08:13:52;1.00;;;0.70;;
25615;SDS011;13482;48.234;13.006;2022-10-16T08:16:19;2.20;;;0.80;;
25615;SDS011;13482;48.234;13.006;2022-10-16T08:18:46;0.80;;;0.60;;
25615;SDS011;13482;48.234;13.006;2022-10-16T08:21:15;0.70;;;0.50;;
25615;SDS011;13482;48.234;13.006;2022-10-16T08:23:46;2.50;;;0.60;;
25615;SDS011;13482;48.234;13.006;2022-10-16T08:26:22;0.90;;;0.60;;
25615;SDS011;13482;48.234;13.006;2022-10-16T08:28:50;2.58;;;0.60;;
25615;SDS011;13482;48.234;13.006;2022-10-16T08:31:18;1.17;;;0.60;;
25615;SDS011;13482;48.234;13.006;2022-10-16T08:33:45;1.17;;;0.60;;
25615;SDS011;13482;48.234;13.006;2022-10-16T08:36:14;0.82;;;0.60;;
25615;SDS011;13482;48.234;13.006;2022-10-16T08:38:42;0.77;;;0.50;;
25615;SDS011;13482;48.234;13.006;2022-10-16T08:50:00;1.40;;;0.60;;
25615;SDS011;13482;48.234;13.006;2022-10-16T08:52:38;1.30;;;0.60;;
25615;SDS011;13482;48.234;13.006;2022-10-16T08:58:13;0.75;;;0.55;;
25615;SDS011;13482;48.234;13.006;2022-10-16T09:00:44;1.00;;;0.60;;
25615;SDS011;13482;48.234;13.006;2022-10-16T09:06:09;1.13;;;0.65;;
25615;SDS011;13482;48.234;13.006;2022-10-16T09:19:52;1.13;;;0.63;;
25615;SDS011;13482;48.234;13.006;2022-10-16T09:22:30;1.10;;;0.80;;
25615;SDS011;13482;48.234;13.006;2022-10-16T09:24:59;0.98;;;0.70;;
25615;SDS011;13482;48.234;13.006;2022-10-16T09:27:31;0.90;;;0.60;;
25615;SDS011;13482;48.234;13.006;2022-10-16T09:29:58;1.58;;;0.50;;
25615;SDS011;13482;48.234;13.006;2022-10-16T09:32:25;2.13;;;0.73;;
25615;SDS011;13482;48.234;13.006;2022-10-16T09:34:55;1.45;;;0.63;;
25615;SDS011;13482;48.234;13.006;2022-10-16T09:37:23;0.88;;;0.70;;
25615;SDS011;13482;48.234;13.006;2022-10-16T09:39:53;4.40;;;0.80;;
25615;SDS011;13482;48.234;13.006;2022-10-16T09:42:30;2.17;;;0.70;;
25615;SDS011;13482;48.234;13.006;2022-10-16T09:45:01;0.68;;;0.50;;
25615;SDS011;13482;48.234;13.006;2022-10-16T09:47:30;0.68;;;0.50;;
25615;SDS011;13482;48.234;13.006;2022-10-16T09:52:28;1.92;;;0.80;;
25615;SDS011;13482;48.234;13.006;2022-10-16T09:55:00;1.10;;;0.60;;
25615;SDS011;13482;48.234;13.006;2022-10-16T09:57:52;0.80;;;0.60;;
25615;SDS011;13482;48.234;13.006;2022-10-16T10:00:22;0.98;;;0.57;;
25615;SDS011;13482;48.234;13.006;2022-10-16T10:02:50;2.30;;;0.70;;
25615;SDS011;13482;48.234;13.006;2022-10-16T10:05:21;1.10;;;0.60;;
25615;SDS011;13482;48.234;13.006;2022-10-16T10:07:55;1.85;;;0.47;;
25615;SDS011;13482;48.234;13.006;2022-10-16T10:10:27;1.25;;;0.52;;
25615;SDS011;13482;48.234;13.006;2022-10-16T10:12:56;0.98;;;0.40;;
25615;SDS011;13482;48.234;13.006;2022-10-16T10:15:24;0.38;;;0.30;;
25615;SDS011;13482;48.234;13.006;2022-10-16T10:17:54;1.83;;;0.43;;
25615;SDS011;13482;48.234;13.006;2022-10-16T10:20:29;0.70;;;0.40;;
25615;SDS011;13482;48.234;13.006;2022-10-16T10:23:01;1.17;;;0.30;;
25615;SDS011;13482;48.234;13.006;2022-10-16T10:39:13;0.45;;;0.35;;
25615;SDS011;13482;48.234;13.006;2022-10-16T10:41:54;0.70;;;0.40;;
25615;SDS011;13482;48.234;13.006;2022-10-16T10:53:12;3.80;;;0.50;;
25615;SDS011;13482;48.234;13.006;2022-10-16T10:59:15;1.58;;;0.85;;
25615;SDS011;13482;48.234;13.006;2022-10-16T11:09:56;0.80;;;0.37;;
25615;SDS011;13482;48.234;13.006;2022-10-16T11:12:32;0.73;;;0.50;;
25615;SDS011;13482;48.234;13.006;2022-10-16T11:15:24;0.77;;;0.50;;
25615;SDS011;13482;48.234;13.006;2022-10-16T11:18:06;0.68;;;0.47;;
25615;SDS011;13482;48.234;13.006;2022-10-16T11:20:37;2.58;;;0.65;;
25615;SDS011;13482;48.234;13.006;2022-10-16T11:25:56;0.95;;;0.50;;
25615;SDS011;13482;48.234;13.006;2022-10-16T11:28:38;0.70;;;0.50;;
25615;SDS011;13482;48.234;13.006;2022-10-16T11:31:26;0.57;;;0.40;;
25615;SDS011;13482;48.234;13.006;2022-10-16T11:36:52;2.55;;;0.70;;
25615;SDS011;13482;48.234;13.006;2022-10-16T11:39:52;0.70;;;0.63;;
25615;SDS011;13482;48.234;13.006;2022-10-16T11:42:35;1.23;;;0.70;;
25615;SDS011;13482;48.234;13.006;2022-10-16T11:51:19;1.30;;;0.80;;
25615;SDS011;13482;48.234;13.006;2022-10-16T11:54:08;0.63;;;0.60;;
25615;SDS011;13482;48.234;13.006;2022-10-16T11:56:56;1.02;;;0.80;;
25615;SDS011;13482;48.234;13.006;2022-10-16T12:08:28;1.30;;;0.82;;
25615;SDS011;13482;48.234;13.006;2022-10-16T12:11:05;1.85;;;0.90;;
25615;SDS011;13482;48.234;13.006;2022-10-16T12:14:16;1.42;;;0.90;;
25615;SDS011;13482;48.234;13.006;2022-10-16T12:19:43;1.40;;;0.80;;
25615;SDS011;13482;48.234;13.006;2022-10-16T12:22:17;1.02;;;0.82;;
25615;SDS011;13482;48.234;13.006;2022-10-16T12:24:45;2.00;;;0.85;;
25615;SDS011;13482;48.234;13.006;2022-10-16T12:27:30;1.27;;;1.00;;
25615;SDS011;13482;48.234;13.006;2022-10-16T12:30:03;1.63;;;0.75;;
25615;SDS011;13482;48.234;13.006;2022-10-16T12:32:33;3.10;;;0.95;;
25615;SDS011;13482;48.234;13.006;2022-10-16T12:35:24;1.98;;;1.05;;
25615;SDS011;13482;48.234;13.006;2022-10-16T12:38:11;1.38;;;1.05;;
25615;SDS011;13482;48.234;13.006;2022-10-16T12:40:43;1.15;;;0.70;;
25615;SDS011;13482;48.234;13.006;2022-10-16T12:46:33;2.03;;;1.00;;
25615;SDS011;13482;48.234;13.006;2022-10-16T12:51:40;1.75;;;0.90;;
25615;SDS011;13482;48.234;13.006;2022-10-16T12:54:26;1.00;;;0.70;;
25615;SDS011;13482;48.234;13.006;2022-10-16T13:06:09;1.60;;;0.77;;
25615;SDS011;13482;48.234;13.006;2022-10-16T13:08:57;0.95;;;0.80;;
25615;SDS011;13482;48.234;13.006;2022-10-16T13:12:06;0.98;;;0.70;;
25615;SDS011;13482;48.234;13.006;2022-10-16T13:17:30;1.20;;;0.80;;
25615;SDS011;13482;48.234;13.006;2022-10-16T13:23:09;2.83;;;0.80;;
25615;SDS011;13482;48.234;13.006;2022-10-16T13:28:42;1.05;;;0.60;;
25615;SDS011;13482;48.234;13.006;2022-10-16T13:31:12;1.35;;;0.70;;
25615;SDS011;13482;48.234;13.006;2022-10-16T13:33:47;0.77;;;0.60;;
25615;SDS011;13482;48.234;13.006;2022-10-16T13:36:28;1.92;;;0.90;;
25615;SDS011;13482;48.234;13.006;2022-10-16T13:39:09;1.00;;;0.70;;
25615;SDS011;13482;48.234;13.006;2022-10-16T13:41:43;0.80;;;0.60;;
25615;SDS011;13482;48.234;13.006;2022-10-16T13:44:13;1.17;;;0.60;;
25615;SDS011;13482;48.234;13.006;2022-10-16T13:46:44;1.98;;;0.77;;
25615;SDS011;13482;48.234;13.006;2022-10-16T13:49:12;1.13;;;0.75;;
25615;SDS011;13482;48.234;13.006;2022-10-16T13:51:56;1.02;;;0.60;;
25615;SDS011;13482;48.234;13.006;2022-10-16T13:54:26;1.83;;;0.80;;
25615;SDS011;13482;48.234;13.006;2022-10-16T13:57:04;1.08;;;0.60;;
25615;SDS011;13482;48.234;13.006;2022-10-16T13:59:51;0.60;;;0.50;;
25615;SDS011;13482;48.234;13.006;2022-10-16T14:02:22;0.95;;;0.60;;
25615;SDS011;13482;48.234;13.006;2022-10-16T14:05:02;1.25;;;0.60;;
25615;SDS011;13482;48.234;13.006;2022-10-16T14:07:32;1.20;;;0.60;;
25615;SDS011;13482;48.234;13.006;2022-10-16T14:10:05;0.75;;;0.50;;
25615;SDS011;13482;48.234;13.006;2022-10-16T14:12:54;0.90;;;0.55;;
25615;SDS011;13482;48.234;13.006;2022-10-16T14:15:23;1.13;;;0.60;;
25615;SDS011;13482;48.234;13.006;2022-10-16T14:17:51;0.93;;;0.52;;
25615;SDS011;13482;48.234;13.006;2022-10-16T14:20:20;1.25;;;0.60;;
25615;SDS011;13482;48.234;13.006;2022-10-16T14:23:03;1.38;;;0.70;;
25615;SDS011;13482;48.234;13.006;2022-10-16T14:30:55;1.77;;;0.60;;
25615;SDS011;13482;48.234;13.006;2022-10-16T14:38:41;0.68;;;0.43;;
25615;SDS011;13482;48.234;13.006;2022-10-16T14:41:29;0.40;;;0.40;;
25615;SDS011;13482;48.234;13.006;2022-10-16T14:44:02;0.75;;;0.40;;
25615;SDS011;13482;48.234;13.006;2022-10-16T14:46:38;0.90;;;0.47;;
25615;SDS011;13482;48.234;13.006;2022-10-16T14:51:37;1.45;;;0.55;;
25615;SDS011;13482;48.234;13.006;2022-10-16T14:54:11;0.65;;;0.50;;
25615;SDS011;13482;48.234;13.006;2022-10-16T14:56:48;1.80;;;0.60;;
25615;SDS011;13482;48.234;13.006;2022-10-16T14:59:27;2.80;;;1.40;;
25615;SDS011;13482;48.234;13.006;2022-10-16T15:04:47;4.50;;;2.33;;
25615;SDS011;13482;48.234;13.006;2022-10-16T15:07:15;1.05;;;0.50;;
25615;SDS011;13482;48.234;13.006;2022-10-16T15:09:42;0.30;;;0.25;;
25615;SDS011;13482;48.234;13.006;2022-10-16T15:12:14;0.47;;;0.45;;
25615;SDS011;13482;48.234;13.006;2022-10-16T15:14:44;1.08;;;0.65;;
25615;SDS011;13482;48.234;13.006;2022-10-16T15:17:11;0.75;;;0.50;;
25615;SDS011;13482;48.234;13.006;2022-10-16T15:19:41;2.40;;;1.00;;
25615;SDS011;13482;48.234;13.006;2022-10-16T15:22:09;4.55;;;2.55;;
25615;SDS011;13482;48.234;13.006;2022-10-16T15:24:38;2.15;;;1.60;;
25615;SDS011;13482;48.234;13.006;2022-10-16T15:27:05;1.52;;;1.10;;
25615;SDS011;13482;48.234;13.006;2022-10-16T15:29:32;1.27;;;0.75;;
25615;SDS011;13482;48.234;13.006;2022-10-16T15:32:00;0.93;;;0.50;;
25615;SDS011;13482;48.234;13.006;2022-10-16T15:34:27;1.63;;;0.50;;
25615;SDS011;13482;48.234;13.006;2022-10-16T15:36:54;0.90;;;0.50;;
25615;SDS011;13482;48.234;13.006;2022-10-16T15:39:24;1.23;;;0.68;;
25615;SDS011;13482;48.234;13.006;2022-10-16T15:41:51;0.65;;;0.47;;
25615;SDS011;13482;48.234;13.006;2022-10-16T15:44:19;1.00;;;0.40;;
25615;SDS011;13482;48.234;13.006;2022-10-16T15:46:55;0.60;;;0.45;;
25615;SDS011;13482;48.234;13.006;2022-10-16T15:49:22;1.48;;;0.82;;
25615;SDS011;13482;48.234;13.006;2022-10-16T15:51:50;2.08;;;1.27;;
25615;SDS011;13482;48.234;13.006;2022-10-16T15:54:19;2.42;;;1.30;;
25615;SDS011;13482;48.234;13.006;2022-10-16T15:56:48;1.75;;;0.98;;
25615;SDS011;13482;48.234;13.006;2022-10-16T15:59:16;1.55;;;0.82;;
25615;SDS011;13482;48.234;13.006;2022-10-16T16:01:43;0.98;;;0.60;;
25615;SDS011;13482;48.234;13.006;2022-10-16T16:04:10;1.17;;;0.57;;
25615;SDS011;13482;48.234;13.006;2022-10-16T16:06:58;1.20;;;0.50;;
25615;SDS011;13482;48.234;13.006;2022-10-16T16:09:25;0.93;;;0.60;;
25615;SDS011;13482;48.234;13.006;2022-10-16T16:11:52;2.75;;;0.60;;
25615;SDS011;13482;48.234;13.006;2022-10-16T16:14:20;0.82;;;0.50;;
25615;SDS011;13482;48.234;13.006;2022-10-16T16:16:47;1.15;;;0.68;;
25615;SDS011;13482;48.234;13.006;2022-10-16T16:19:14;1.20;;;0.60;;
25615;SDS011;13482;48.234;13.006;2022-10-16T16:21:44;1.08;;;0.60;;
25615;SDS011;13482;48.234;13.006;2022-10-16T16:24:11;0.85;;;0.60;;
25615;SDS011;13482;48.234;13.006;2022-10-16T16:26:38;2.05;;;0.70;;
25615;SDS011;13482;48.234;13.006;2022-10-16T16:29:13;1.53;;;0.73;;
25615;SDS011;13482;48.234;13.006;2022-10-16T16:31:42;1.80;;;0.77;;
25615;SDS011;13482;48.234;13.006;2022-10-16T16:34:09;1.35;;;0.60;;
25615;SDS011;13482;48.234;13.006;2022-10-16T16:36:36;0.98;;;0.70;;
25615;SDS011;13482;48.234;13.006;2022-10-16T16:39:03;1.55;;;0.60;;
25615;SDS011;13482;48.234;13.006;2022-10-16T16:41:31;0.98;;;0.77;;
25615;SDS011;13482;48.234;13.006;2022-10-16T16:44:03;1.05;;;0.75;;
25615;SDS011;13482;48.234;13.006;2022-10-16T16:46:34;1.40;;;0.70;;
25615;SDS011;13482;48.234;13.006;2022-10-16T16:49:01;1.67;;;0.80;;
25615;SDS011;13482;48.234;13.006;2022-10-16T16:51:29;1.17;;;0.90;;
25615;SDS011;13482;48.234;13.006;2022-10-16T16:53:56;1.48;;;0.90;;
25615;SDS011;13482;48.234;13.006;2022-10-16T16:56:24;1.85;;;1.13;;
25615;SDS011;13482;48.234;13.006;2022-10-16T16:58:53;1.33;;;0.80;;
25615;SDS011;13482;48.234;13.006;2022-10-16T17:01:22;1.60;;;1.00;;
25615;SDS011;13482;48.234;13.006;2022-10-16T17:03:52;1.38;;;1.00;;
25615;SDS011;13482;48.234;13.006;2022-10-16T17:06:23;1.85;;;1.27;;
25615;SDS011;13482;48.234;13.006;2022-10-16T17:08:53;1.37;;;0.90;;
25615;SDS011;13482;48.234;13.006;2022-10-16T17:11:22;1.33;;;0.90;;
25615;SDS011;13482;48.234;13.006;2022-10-16T17:13:51;1.15;;;0.70;;
25615;SDS011;13482;48.234;13.006;2022-10-16T17:16:23;1.33;;;0.90;;
25615;SDS011;13482;48.234;13.006;2022-10-16T17:18:53;1.15;;;0.75;;
25615;SDS011;13482;48.234;13.006;2022-10-16T17:21:20;4.05;;;1.08;;